sensor_id;sensor_type;location;lat;lon;timestamp;pressure;altitude;pressure_sealevel;temperature;humidity
59588;BME280;45412;54.472;18.464;2023-11-18T00:01:42;100264.84;;;1.75;100.00
59588;BME280;45412;54.472;18.464;2023-11-18T00:04:31;100263.40;;;1.76;100.00
59588;BME280;45412;54.472;18.464;2023-11-18T00:07:19;100264.38;;;1.74;100.00
59588;BME280;45412;54.472;18.464;2023-11-18T00:10:07;100267.10;;;1.70;100.00
59588;BME280;45412;54.472;18.464;2023-11-18T00:12:55;100267.32;;;1.65;100.00
59588;BME280;45412;54.472;18.464;2023-11-18T00:15:43;100271.70;;;1.65;100.00
59588;BME280;45412;54.472;18.464;2023-11-18T00:18:33;100276.83;;;1.63;100.00
59588;BME280;45412;54.472;18.464;2023-11-18T00:21:22;100275.98;;;1.62;100.00
59588;BME280;45412;54.472;18.464;2023-11-18T00:24:09;100282.24;;;1.63;100.00
59588;BME280;45412;54.472;18.464;2023-11-18T00:26:57;100278.95;;;1.62;100.00
59588;BME280;45412;54.472;18.464;2023-11-18T00:29:45;100282.19;;;1.60;100.00
59588;BME280;45412;54.472;18.464;2023-11-18T00:32:33;100282.89;;;1.60;100.00
59588;BME280;45412;54.472;18.464;2023-11-18T00:35:20;100290.48;;;1.62;100.00
59588;BME280;45412;54.472;18.464;2023-11-18T00:38:08;100296.06;;;1.63;100.00
59588;BME280;45412;54.472;18.464;2023-11-18T00:40:58;100302.89;;;1.63;100.00
59588;BME280;45412;54.472;18.464;2023-11-18T00:43:46;100304.58;;;1.65;100.00
59588;BME280;45412;54.472;18.464;2023-11-18T00:46:33;100310.40;;;1.68;100.00
59588;BME280;45412;54.472;18.464;2023-11-18T00:49:23;100310.36;;;1.69;100.00
59588;BME280;45412;54.472;18.464;2023-11-18T00:52:14;100312.98;;;1.69;100.00
59588;BME280;45412;54.472;18.464;2023-11-18T00:55:03;100315.54;;;1.71;100.00
59588;BME280;45412;54.472;18.464;2023-11-18T00:57:50;100314.25;;;1.73;100.00
59588;BME280;45412;54.472;18.464;2023-11-18T01:00:38;100319.33;;;1.78;100.00
59588;BME280;45412;54.472;18.464;2023-11-18T01:03:26;100321.17;;;1.80;100.00
59588;BME280;45412;54.472;18.464;2023-11-18T01:06:14;100323.70;;;1.82;100.00
59588;BME280;45412;54.472;18.464;2023-11-18T01:09:06;100322.55;;;1.85;100.00
59588;BME280;45412;54.472;18.464;2023-11-18T01:11:55;100324.55;;;1.88;100.00
59588;BME280;45412;54.472;18.464;2023-11-18T01:14:55;100324.05;;;1.92;100.00
59588;BME280;45412;54.472;18.464;2023-11-18T01:17:43;100323.33;;;1.92;100.00
59588;BME280;45412;54.472;18.464;2023-11-18T01:20:32;100319.42;;;1.94;100.00
59588;BME280;45412;54.472;18.464;2023-11-18T01:23:20;100323.58;;;1.90;100.00
59588;BME280;45412;54.472;18.464;2023-11-18T01:26:08;100322.96;;;1.88;100.00
59588;BME280;45412;54.472;18.464;2023-11-18T01:28:57;100326.80;;;1.88;100.00
59588;BME280;45412;54.472;18.464;2023-11-18T01:31:45;100326.45;;;1.88;100.00
59588;BME280;45412;54.472;18.464;2023-11-18T01:34:39;100328.39;;;1.88;100.00
59588;BME280;45412;54.472;18.464;2023-11-18T01:37:27;100328.56;;;1.88;100.00
59588;BME280;45412;54.472;18.464;2023-11-18T01:40:15;100332.98;;;1.87;100.00
59588;BME280;45412;54.472;18.464;2023-11-18T01:43:03;100335.80;;;1.86;100.00
59588;BME280;45412;54.472;18.464;2023-11-18T01:46:00;100334.75;;;1.86;100.00
59588;BME280;45412;54.472;18.464;2023-11-18T01:48:52;100334.61;;;1.85;100.00
59588;BME280;45412;54.472;18.464;2023-11-18T01:51:42;100335.02;;;1.84;100.00
59588;BME280;45412;54.472;18.464;2023-11-18T01:54:31;100333.26;;;1.84;100.00
59588;BME280;45412;54.472;18.464;2023-11-18T01:57:19;100339.45;;;1.87;100.00
59588;BME280;45412;54.472;18.464;2023-11-18T02:00:08;100337.94;;;1.90;100.00
59588;BME280;45412;54.472;18.464;2023-11-18T02:03:03;100339.30;;;1.91;100.00
59588;BME280;45412;54.472;18.464;2023-11-18T02:05:52;100344.99;;;1.94;100.00
59588;BME280;45412;54.472;18.464;2023-11-18T02:08:40;100342.80;;;1.96;100.00
59588;BME280;45412;54.472;18.464;2023-11-18T02:11:37;100341.04;;;1.96;100.00
59588;BME280;45412;54.472;18.464;2023-11-18T02:14:31;100348.09;;;1.95;100.00
59588;BME280;45412;54.472;18.464;2023-11-18T02:17:21;100347.20;;;1.95;100.00
59588;BME280;45412;54.472;18.464;2023-11-18T02:20:14;100352.79;;;1.95;100.00
59588;BME280;45412;54.472;18.464;2023-11-18T02:23:05;100350.73;;;1.99;100.00
59588;BME280;45412;54.472;18.464;2023-11-18T02:25:55;100347.66;;;2.01;100.00
59588;BME280;45412;54.472;18.464;2023-11-18T02:28:43;100341.58;;;2.05;100.00
59588;BME280;45412;54.472;18.464;2023-11-18T02:31:34;100341.34;;;2.07;100.00
59588;BME280;45412;54.472;18.464;2023-11-18T02:34:30;100347.59;;;2.08;100.00
59588;BME280;45412;54.472;18.464;2023-11-18T02:37:20;100344.63;;;2.08;100.00
59588;BME280;45412;54.472;18.464;2023-11-18T02:40:12;100340.85;;;2.05;100.00
59588;BME280;45412;54.472;18.464;2023-11-18T02:43:04;100341.86;;;2.02;100.00
59588;BME280;45412;54.472;18.464;2023-11-18T02:45:57;100343.50;;;2.00;100.00
59588;BME280;45412;54.472;18.464;2023-11-18T02:48:45;100348.04;;;2.01;100.00
59588;BME280;45412;54.472;18.464;2023-11-18T02:51:33;100356.04;;;2.02;100.00
59588;BME280;45412;54.472;18.464;2023-11-18T02:54:26;100356.30;;;2.05;100.00
59588;BME280;45412;54.472;18.464;2023-11-18T02:57:14;100358.13;;;2.08;100.00
59588;BME280;45412;54.472;18.464;2023-11-18T03:00:06;100361.61;;;2.08;100.00
59588;BME280;45412;54.472;18.464;2023-11-18T03:02:59;100373.20;;;2.11;100.00
59588;BME280;45412;54.472;18.464;2023-11-18T03:05:47;100377.35;;;2.08;100.00
59588;BME280;45412;54.472;18.464;2023-11-18T03:08:37;100380.27;;;2.05;100.00
59588;BME280;45412;54.472;18.464;2023-11-18T03:11:25;100380.16;;;2.03;100.00
59588;BME280;45412;54.472;18.464;2023-11-18T03:14:13;100384.84;;;2.04;100.00
59588;BME280;45412;54.472;18.464;2023-11-18T03:17:01;100386.98;;;2.08;100.00
59588;BME280;45412;54.472;18.464;2023-11-18T03:19:49;100382.52;;;2.10;100.00
59588;BME280;45412;54.472;18.464;2023-11-18T03:22:38;100378.88;;;2.09;100.00
59588;BME280;45412;54.472;18.464;2023-11-18T03:25:26;100372.31;;;2.07;100.00
59588;BME280;45412;54.472;18.464;2023-11-18T03:28:14;100376.55;;;2.01;100.00
59588;BME280;45412;54.472;18.464;2023-11-18T03:31:05;100377.98;;;1.96;100.00
59588;BME280;45412;54.472;18.464;2023-11-18T03:33:53;100373.36;;;1.88;100.00
59588;BME280;45412;54.472;18.464;2023-11-18T03:36:41;100372.36;;;1.82;100.00
59588;BME280;45412;54.472;18.464;2023-11-18T03:39:29;100377.55;;;1.79;100.00
59588;BME280;45412;54.472;18.464;2023-11-18T03:42:17;100378.44;;;1.79;100.00
59588;BME280;45412;54.472;18.464;2023-11-18T03:45:05;100380.88;;;1.79;100.00
59588;BME280;45412;54.472;18.464;2023-11-18T03:47:53;100382.38;;;1.76;100.00
59588;BME280;45412;54.472;18.464;2023-11-18T03:50:41;100387.21;;;1.77;100.00
59588;BME280;45412;54.472;18.464;2023-11-18T03:53:29;100392.06;;;1.79;100.00
59588;BME280;45412;54.472;18.464;2023-11-18T03:56:17;100397.19;;;1.82;100.00
59588;BME280;45412;54.472;18.464;2023-11-18T03:59:08;100395.85;;;1.81;100.00
59588;BME280;45412;54.472;18.464;2023-11-18T04:01:56;100401.75;;;1.72;100.00
59588;BME280;45412;54.472;18.464;2023-11-18T04:04:45;100410.21;;;1.66;100.00
59588;BME280;45412;54.472;18.464;2023-11-18T04:07:34;100417.46;;;1.63;100.00
59588;BME280;45412;54.472;18.464;2023-11-18T04:10:22;100422.80;;;1.61;100.00
59588;BME280;45412;54.472;18.464;2023-11-18T04:13:10;100428.73;;;1.61;100.00
59588;BME280;45412;54.472;18.464;2023-11-18T04:15:57;100427.33;;;1.61;100.00
59588;BME280;45412;54.472;18.464;2023-11-18T04:18:45;100432.91;;;1.62;100.00
59588;BME280;45412;54.472;18.464;2023-11-18T04:21:33;100435.14;;;1.58;100.00
59588;BME280;45412;54.472;18.464;2023-11-18T04:24:21;100435.94;;;1.49;100.00
59588;BME280;45412;54.472;18.464;2023-11-18T04:27:09;100432.04;;;1.46;100.00
59588;BME280;45412;54.472;18.464;2023-11-18T04:29:56;100435.29;;;1.43;100.00
59588;BME280;45412;54.472;18.464;2023-11-18T04:32:44;100437.43;;;1.42;100.00
59588;BME280;45412;54.472;18.464;2023-11-18T04:35:32;100434.73;;;1.44;100.00
59588;BME280;45412;54.472;18.464;2023-11-18T04:38:22;100434.04;;;1.44;100.00
59588;BME280;45412;54.472;18.464;2023-11-18T04:41:10;100435.86;;;1.42;100.00
59588;BME280;45412;54.472;18.464;2023-11-18T04:43:58;100431.99;;;1.37;100.00
59588;BME280;45412;54.472;18.464;2023-11-18T04:46:46;100433.80;;;1.35;100.00
59588;BME280;45412;54.472;18.464;2023-11-18T04:49:34;100441.27;;;1.31;100.00
59588;BME280;45412;54.472;18.464;2023-11-18T04:52:23;100442.42;;;1.23;100.00
59588;BME280;45412;54.472;18.464;2023-11-18T04:55:10;100442.94;;;1.17;100.00
59588;BME280;45412;54.472;18.464;2023-11-18T04:58:01;100452.46;;;1.15;100.00
59588;BME280;45412;54.472;18.464;2023-11-18T05:00:48;100456.18;;;1.14;100.00
59588;BME280;45412;54.472;18.464;2023-11-18T05:03:36;100461.23;;;1.14;100.00
59588;BME280;45412;54.472;18.464;2023-11-18T05:06:25;100464.40;;;1.14;100.00
59588;BME280;45412;54.472;18.464;2023-11-18T05:09:13;100462.89;;;1.17;100.00
59588;BME280;45412;54.472;18.464;2023-11-18T05:12:04;100472.58;;;1.20;100.00
59588;BME280;45412;54.472;18.464;2023-11-18T05:14:52;100478.08;;;1.23;100.00
59588;BME280;45412;54.472;18.464;2023-11-18T05:17:42;100482.55;;;1.26;100.00
59588;BME280;45412;54.472;18.464;2023-11-18T05:20:30;100489.14;;;1.27;100.00
59588;BME280;45412;54.472;18.464;2023-11-18T05:23:18;100491.90;;;1.28;100.00
59588;BME280;45412;54.472;18.464;2023-11-18T05:26:06;100491.75;;;1.28;100.00
59588;BME280;45412;54.472;18.464;2023-11-18T05:28:54;100494.54;;;1.28;100.00
59588;BME280;45412;54.472;18.464;2023-11-18T05:31:42;100492.98;;;1.28;100.00
59588;BME280;45412;54.472;18.464;2023-11-18T05:34:31;100496.86;;;1.26;100.00
59588;BME280;45412;54.472;18.464;2023-11-18T05:37:21;100501.95;;;1.26;100.00
59588;BME280;45412;54.472;18.464;2023-11-18T05:40:09;100497.70;;;1.28;100.00
59588;BME280;45412;54.472;18.464;2023-11-18T05:42:59;100492.55;;;1.24;100.00
59588;BME280;45412;54.472;18.464;2023-11-18T05:45:50;100497.44;;;1.25;100.00
59588;BME280;45412;54.472;18.464;2023-11-18T05:49:03;100500.40;;;1.25;100.00
59588;BME280;45412;54.472;18.464;2023-11-18T05:51:56;100505.19;;;1.23;100.00
59588;BME280;45412;54.472;18.464;2023-11-18T05:54:44;100500.55;;;1.21;100.00
59588;BME280;45412;54.472;18.464;2023-11-18T05:57:32;100499.52;;;1.20;100.00
59588;BME280;45412;54.472;18.464;2023-11-18T06:00:20;100499.10;;;1.22;100.00
59588;BME280;45412;54.472;18.464;2023-11-18T06:03:19;100505.02;;;1.23;100.00
59588;BME280;45412;54.472;18.464;2023-11-18T06:06:09;100508.26;;;1.26;100.00
59588;BME280;45412;54.472;18.464;2023-11-18T06:08:57;100510.98;;;1.28;100.00
59588;BME280;45412;54.472;18.464;2023-11-18T06:11:47;100513.19;;;1.30;100.00
59588;BME280;45412;54.472;18.464;2023-11-18T06:14:38;100518.31;;;1.33;100.00
59588;BME280;45412;54.472;18.464;2023-11-18T06:17:26;100518.36;;;1.37;100.00
59588;BME280;45412;54.472;18.464;2023-11-18T06:20:15;100521.56;;;1.41;100.00
59588;BME280;45412;54.472;18.464;2023-11-18T06:23:05;100521.84;;;1.38;100.00
59588;BME280;45412;54.472;18.464;2023-11-18T06:25:54;100520.98;;;1.37;100.00
59588;BME280;45412;54.472;18.464;2023-11-18T06:28:43;100521.84;;;1.38;100.00
59588;BME280;45412;54.472;18.464;2023-11-18T06:31:32;100523.65;;;1.36;100.00
59588;BME280;45412;54.472;18.464;2023-11-18T06:34:20;100526.98;;;1.36;100.00
59588;BME280;45412;54.472;18.464;2023-11-18T06:37:08;100532.19;;;1.37;100.00
59588;BME280;45412;54.472;18.464;2023-11-18T06:39:56;100534.24;;;1.39;100.00
59588;BME280;45412;54.472;18.464;2023-11-18T06:42:45;100538.73;;;1.40;100.00
59588;BME280;45412;54.472;18.464;2023-11-18T06:45:36;100543.76;;;1.42;100.00
59588;BME280;45412;54.472;18.464;2023-11-18T06:48:24;100544.96;;;1.42;100.00
59588;BME280;45412;54.472;18.464;2023-11-18T06:51:16;100544.83;;;1.41;100.00
59588;BME280;45412;54.472;18.464;2023-11-18T06:54:05;100541.80;;;1.37;100.00
59588;BME280;45412;54.472;18.464;2023-11-18T06:56:59;100542.41;;;1.34;100.00
59588;BME280;45412;54.472;18.464;2023-11-18T06:59:47;100542.38;;;1.35;100.00
59588;BME280;45412;54.472;18.464;2023-11-18T07:02:36;100543.95;;;1.35;100.00
59588;BME280;45412;54.472;18.464;2023-11-18T07:05:26;100547.61;;;1.36;100.00
59588;BME280;45412;54.472;18.464;2023-11-18T07:08:14;100551.09;;;1.36;100.00
59588;BME280;45412;54.472;18.464;2023-11-18T07:11:02;100558.93;;;1.37;100.00
59588;BME280;45412;54.472;18.464;2023-11-18T07:13:51;100551.20;;;1.39;100.00
59588;BME280;45412;54.472;18.464;2023-11-18T07:16:44;100552.73;;;1.45;100.00
59588;BME280;45412;54.472;18.464;2023-11-18T07:19:32;100555.66;;;1.52;100.00
59588;BME280;45412;54.472;18.464;2023-11-18T07:22:25;100559.39;;;1.56;100.00
59588;BME280;45412;54.472;18.464;2023-11-18T07:25:12;100560.95;;;1.56;100.00
59588;BME280;45412;54.472;18.464;2023-11-18T07:28:00;100563.30;;;1.53;100.00
59588;BME280;45412;54.472;18.464;2023-11-18T07:30:48;100567.33;;;1.53;100.00
59588;BME280;45412;54.472;18.464;2023-11-18T07:33:36;100566.48;;;1.53;100.00
59588;BME280;45412;54.472;18.464;2023-11-18T07:36:25;100570.04;;;1.51;100.00
59588;BME280;45412;54.472;18.464;2023-11-18T07:39:14;100571.66;;;1.55;100.00
59588;BME280;45412;54.472;18.464;2023-11-18T07:42:12;100577.66;;;1.59;100.00
59588;BME280;45412;54.472;18.464;2023-11-18T07:45:05;100576.06;;;1.65;100.00
59588;BME280;45412;54.472;18.464;2023-11-18T07:48:06;100576.02;;;1.72;100.00
59588;BME280;45412;54.472;18.464;2023-11-18T07:50:55;100572.34;;;1.77;100.00
59588;BME280;45412;54.472;18.464;2023-11-18T07:53:44;100572.03;;;1.81;100.00
59588;BME280;45412;54.472;18.464;2023-11-18T07:56:32;100574.61;;;1.83;100.00
59588;BME280;45412;54.472;18.464;2023-11-18T07:59:20;100573.79;;;1.81;100.00
59588;BME280;45412;54.472;18.464;2023-11-18T08:02:09;100567.48;;;1.81;100.00
59588;BME280;45412;54.472;18.464;2023-11-18T08:04:58;100571.05;;;1.84;100.00
59588;BME280;45412;54.472;18.464;2023-11-18T08:07:46;100574.13;;;1.92;100.00
59588;BME280;45412;54.472;18.464;2023-11-18T08:10:35;100577.48;;;1.96;100.00
59588;BME280;45412;54.472;18.464;2023-11-18T08:13:26;100577.73;;;1.99;100.00
59588;BME280;45412;54.472;18.464;2023-11-18T08:16:14;100578.68;;;2.02;100.00
59588;BME280;45412;54.472;18.464;2023-11-18T08:19:02;100576.10;;;2.06;100.00
59588;BME280;45412;54.472;18.464;2023-11-18T08:21:50;100574.05;;;2.10;100.00
59588;BME280;45412;54.472;18.464;2023-11-18T08:24:38;100574.67;;;2.12;100.00
59588;BME280;45412;54.472;18.464;2023-11-18T08:27:26;100577.41;;;2.14;100.00
59588;BME280;45412;54.472;18.464;2023-11-18T08:30:15;100580.96;;;2.18;100.00
59588;BME280;45412;54.472;18.464;2023-11-18T08:33:06;100586.96;;;2.20;100.00
59588;BME280;45412;54.472;18.464;2023-11-18T08:35:56;100587.59;;;2.24;100.00
59588;BME280;45412;54.472;18.464;2023-11-18T08:38:44;100589.41;;;2.26;100.00
59588;BME280;45412;54.472;18.464;2023-11-18T08:41:34;100594.16;;;2.30;100.00
59588;BME280;45412;54.472;18.464;2023-11-18T08:44:22;100598.34;;;2.32;100.00
59588;BME280;45412;54.472;18.464;2023-11-18T08:47:11;100597.48;;;2.31;100.00
59588;BME280;45412;54.472;18.464;2023-11-18T08:50:00;100596.59;;;2.31;100.00
59588;BME280;45412;54.472;18.464;2023-11-18T08:53:00;100594.52;;;2.35;100.00
59588;BME280;45412;54.472;18.464;2023-11-18T08:55:52;100595.70;;;2.37;100.00
59588;BME280;45412;54.472;18.464;2023-11-18T08:58:43;100602.66;;;2.43;100.00
59588;BME280;45412;54.472;18.464;2023-11-18T09:01:33;100614.08;;;2.47;100.00
59588;BME280;45412;54.472;18.464;2023-11-18T09:04:26;100615.78;;;2.48;100.00
59588;BME280;45412;54.472;18.464;2023-11-18T09:07:16;100615.52;;;2.51;100.00
59588;BME280;45412;54.472;18.464;2023-11-18T09:10:04;100614.39;;;2.53;100.00
59588;BME280;45412;54.472;18.464;2023-11-18T09:12:54;100609.96;;;2.55;100.00
59588;BME280;45412;54.472;18.464;2023-11-18T09:15:44;100613.98;;;2.65;100.00
59588;BME280;45412;54.472;18.464;2023-11-18T09:18:32;100614.48;;;2.80;100.00
59588;BME280;45412;54.472;18.464;2023-11-18T09:21:25;100614.73;;;2.97;100.00
59588;BME280;45412;54.472;18.464;2023-11-18T09:24:18;100615.79;;;3.16;100.00
59588;BME280;45412;54.472;18.464;2023-11-18T09:27:07;100615.21;;;3.31;100.00
59588;BME280;45412;54.472;18.464;2023-11-18T09:29:56;100617.80;;;3.45;100.00
59588;BME280;45412;54.472;18.464;2023-11-18T09:32:44;100623.45;;;3.53;99.32
59588;BME280;45412;54.472;18.464;2023-11-18T09:35:35;100630.61;;;3.58;98.15
59588;BME280;45412;54.472;18.464;2023-11-18T09:38:22;100630.44;;;3.63;97.75
59588;BME280;45412;54.472;18.464;2023-11-18T09:41:10;100629.02;;;3.64;95.64
59588;BME280;45412;54.472;18.464;2023-11-18T09:43:58;100628.84;;;3.50;94.16
59588;BME280;45412;54.472;18.464;2023-11-18T09:46:54;100630.00;;;3.43;94.87
59588;BME280;45412;54.472;18.464;2023-11-18T09:49:52;100630.70;;;3.34;94.53
59588;BME280;45412;54.472;18.464;2023-11-18T09:52:49;100629.19;;;3.32;95.28
59588;BME280;45412;54.472;18.464;2023-11-18T09:59:33;100638.64;;;3.42;95.68
59588;BME280;45412;54.472;18.464;2023-11-18T10:02:32;100643.08;;;3.45;96.09
59588;BME280;45412;54.472;18.464;2023-11-18T10:05:22;100645.41;;;3.44;96.01
59588;BME280;45412;54.472;18.464;2023-11-18T10:08:10;100640.77;;;3.41;96.38
59588;BME280;45412;54.472;18.464;2023-11-18T10:10:58;100639.16;;;3.42;96.45
59588;BME280;45412;54.472;18.464;2023-11-18T10:13:57;100637.52;;;3.39;96.34
59588;BME280;45412;54.472;18.464;2023-11-18T10:16:46;100640.61;;;3.36;96.36
59588;BME280;45412;54.472;18.464;2023-11-18T10:19:55;100638.25;;;3.33;96.08
59588;BME280;45412;54.472;18.464;2023-11-18T10:22:45;100640.67;;;3.25;96.36
59588;BME280;45412;54.472;18.464;2023-11-18T10:25:33;100648.63;;;3.19;96.48
59588;BME280;45412;54.472;18.464;2023-11-18T10:31:18;100654.83;;;3.13;97.61
59588;BME280;45412;54.472;18.464;2023-11-18T10:34:06;100656.61;;;3.02;97.59
59588;BME280;45412;54.472;18.464;2023-11-18T10:37:02;100654.06;;;2.95;97.90
59588;BME280;45412;54.472;18.464;2023-11-18T10:39:51;100653.38;;;2.95;99.07
59588;BME280;45412;54.472;18.464;2023-11-18T10:42:40;100658.38;;;2.97;99.42
59588;BME280;45412;54.472;18.464;2023-11-18T10:45:30;100656.77;;;2.98;99.76
59588;BME280;45412;54.472;18.464;2023-11-18T10:48:20;100650.57;;;3.00;99.89
59588;BME280;45412;54.472;18.464;2023-11-18T10:51:10;100652.73;;;3.03;99.99
59588;BME280;45412;54.472;18.464;2023-11-18T10:54:01;100659.89;;;3.04;99.93
59588;BME280;45412;54.472;18.464;2023-11-18T10:56:52;100661.92;;;3.01;99.95
59588;BME280;45412;54.472;18.464;2023-11-18T11:00:05;100663.88;;;2.96;99.32
59588;BME280;45412;54.472;18.464;2023-11-18T11:03:05;100664.83;;;2.94;99.98
59588;BME280;45412;54.472;18.464;2023-11-18T11:05:53;100667.81;;;2.93;100.00
59588;BME280;45412;54.472;18.464;2023-11-18T11:08:42;100660.94;;;2.84;99.70
59588;BME280;45412;54.472;18.464;2023-11-18T11:11:42;100658.34;;;2.74;99.66
59588;BME280;45412;54.472;18.464;2023-11-18T11:14:37;100660.45;;;2.73;100.00
59588;BME280;45412;54.472;18.464;2023-11-18T11:17:31;100662.98;;;2.77;100.00
59588;BME280;45412;54.472;18.464;2023-11-18T11:20:25;100664.45;;;2.80;100.00
59588;BME280;45412;54.472;18.464;2023-11-18T11:23:47;100658.39;;;2.82;100.00
59588;BME280;45412;54.472;18.464;2023-11-18T11:27:02;100663.71;;;2.85;100.00
59588;BME280;45412;54.472;18.464;2023-11-18T11:30:02;100663.52;;;2.85;100.00
59588;BME280;45412;54.472;18.464;2023-11-18T11:33:04;100660.02;;;2.80;100.00
59588;BME280;45412;54.472;18.464;2023-11-18T11:35:59;100662.31;;;2.76;100.00
59588;BME280;45412;54.472;18.464;2023-11-18T11:38:52;100665.33;;;2.75;100.00
59588;BME280;45412;54.472;18.464;2023-11-18T11:41:51;100671.41;;;2.76;100.00
59588;BME280;45412;54.472;18.464;2023-11-18T11:44:38;100667.17;;;2.77;100.00
59588;BME280;45412;54.472;18.464;2023-11-18T11:47:30;100672.39;;;2.83;100.00
59588;BME280;45412;54.472;18.464;2023-11-18T11:50:31;100677.20;;;2.91;100.00
59588;BME280;45412;54.472;18.464;2023-11-18T11:53:25;100684.35;;;3.01;100.00
59588;BME280;45412;54.472;18.464;2023-11-18T11:56:16;100683.00;;;3.10;100.00
59588;BME280;45412;54.472;18.464;2023-11-18T11:59:09;100688.85;;;3.13;100.00
59588;BME280;45412;54.472;18.464;2023-11-18T12:02:01;100689.33;;;3.14;100.00
59588;BME280;45412;54.472;18.464;2023-11-18T12:04:55;100687.63;;;3.12;100.00
59588;BME280;45412;54.472;18.464;2023-11-18T12:07:47;100682.91;;;3.07;100.00
59588;BME280;45412;54.472;18.464;2023-11-18T12:10:36;100686.59;;;3.07;100.00
59588;BME280;45412;54.472;18.464;2023-11-18T12:13:25;100690.05;;;3.09;100.00
59588;BME280;45412;54.472;18.464;2023-11-18T12:16:14;100693.69;;;3.10;100.00
59588;BME280;45412;54.472;18.464;2023-11-18T12:19:41;100690.86;;;3.11;100.00
59588;BME280;45412;54.472;18.464;2023-11-18T12:23:03;100689.39;;;3.12;100.00
59588;BME280;45412;54.472;18.464;2023-11-18T12:26:38;100688.08;;;3.14;100.00
59588;BME280;45412;54.472;18.464;2023-11-18T12:29:32;100688.83;;;3.18;100.00
59588;BME280;45412;54.472;18.464;2023-11-18T12:33:10;100686.30;;;3.20;100.00
59588;BME280;45412;54.472;18.464;2023-11-18T12:40:22;100672.90;;;3.17;100.00
59588;BME280;45412;54.472;18.464;2023-11-18T12:43:15;100666.67;;;3.15;100.00
59588;BME280;45412;54.472;18.464;2023-11-18T12:49:17;100671.58;;;3.15;100.00
59588;BME280;45412;54.472;18.464;2023-11-18T12:52:12;100669.27;;;3.15;100.00
59588;BME280;45412;54.472;18.464;2023-11-18T12:55:02;100675.83;;;3.18;100.00
59588;BME280;45412;54.472;18.464;2023-11-18T12:57:52;100677.88;;;3.20;100.00
59588;BME280;45412;54.472;18.464;2023-11-18T13:00:42;100678.46;;;3.18;100.00
59588;BME280;45412;54.472;18.464;2023-11-18T13:03:32;100675.48;;;3.18;100.00
59588;BME280;45412;54.472;18.464;2023-11-18T13:06:22;100679.48;;;3.20;100.00
59588;BME280;45412;54.472;18.464;2023-11-18T13:09:15;100673.52;;;3.19;100.00
59588;BME280;45412;54.472;18.464;2023-11-18T13:12:14;100676.07;;;3.17;100.00
59588;BME280;45412;54.472;18.464;2023-11-18T13:15:09;100672.05;;;3.16;100.00
59588;BME280;45412;54.472;18.464;2023-11-18T13:20:57;100680.45;;;3.17;100.00
59588;BME280;45412;54.472;18.464;2023-11-18T13:23:52;100682.58;;;3.21;100.00
59588;BME280;45412;54.472;18.464;2023-11-18T13:26:40;100680.73;;;3.23;100.00
59588;BME280;45412;54.472;18.464;2023-11-18T13:29:30;100677.08;;;3.28;100.00
59588;BME280;45412;54.472;18.464;2023-11-18T13:32:20;100669.91;;;3.27;100.00
59588;BME280;45412;54.472;18.464;2023-11-18T13:35:15;100661.66;;;3.18;100.00
59588;BME280;45412;54.472;18.464;2023-11-18T13:38:06;100659.16;;;3.04;100.00
59588;BME280;45412;54.472;18.464;2023-11-18T13:40:56;100663.19;;;2.95;100.00
59588;BME280;45412;54.472;18.464;2023-11-18T13:43:45;100663.39;;;2.84;100.00
59588;BME280;45412;54.472;18.464;2023-11-18T13:46:38;100666.92;;;2.74;100.00
59588;BME280;45412;54.472;18.464;2023-11-18T13:49:29;100678.58;;;2.66;100.00
59588;BME280;45412;54.472;18.464;2023-11-18T13:52:19;100681.31;;;2.58;100.00
59588;BME280;45412;54.472;18.464;2023-11-18T13:55:12;100678.36;;;2.52;100.00
59588;BME280;45412;54.472;18.464;2023-11-18T13:58:06;100676.39;;;2.43;100.00
59588;BME280;45412;54.472;18.464;2023-11-18T14:00:55;100678.98;;;2.34;100.00
59588;BME280;45412;54.472;18.464;2023-11-18T14:03:43;100674.58;;;2.24;100.00
59588;BME280;45412;54.472;18.464;2023-11-18T14:06:32;100679.30;;;2.13;100.00
59588;BME280;45412;54.472;18.464;2023-11-18T14:09:20;100680.73;;;2.02;100.00
59588;BME280;45412;54.472;18.464;2023-11-18T14:12:09;100683.53;;;1.97;100.00
59588;BME280;45412;54.472;18.464;2023-11-18T14:14:57;100686.05;;;1.95;100.00
59588;BME280;45412;54.472;18.464;2023-11-18T14:17:45;100686.77;;;1.94;100.00
59588;BME280;45412;54.472;18.464;2023-11-18T14:20:35;100684.71;;;1.92;100.00
59588;BME280;45412;54.472;18.464;2023-11-18T14:23:23;100681.35;;;1.88;100.00
59588;BME280;45412;54.472;18.464;2023-11-18T14:26:11;100683.70;;;1.85;100.00
59588;BME280;45412;54.472;18.464;2023-11-18T14:28:59;100687.46;;;1.83;100.00
59588;BME280;45412;54.472;18.464;2023-11-18T14:31:47;100689.90;;;1.78;100.00
59588;BME280;45412;54.472;18.464;2023-11-18T14:34:35;100689.65;;;1.69;100.00
59588;BME280;45412;54.472;18.464;2023-11-18T14:37:22;100687.64;;;1.60;100.00
59588;BME280;45412;54.472;18.464;2023-11-18T14:40:12;100690.66;;;1.53;100.00
59588;BME280;45412;54.472;18.464;2023-11-18T14:43:03;100694.92;;;1.45;100.00
59588;BME280;45412;54.472;18.464;2023-11-18T14:45:52;100695.52;;;1.36;100.00
59588;BME280;45412;54.472;18.464;2023-11-18T14:48:40;100693.27;;;1.30;100.00
59588;BME280;45412;54.472;18.464;2023-11-18T14:51:28;100691.67;;;1.24;100.00
59588;BME280;45412;54.472;18.464;2023-11-18T14:54:17;100696.89;;;1.19;100.00
59588;BME280;45412;54.472;18.464;2023-11-18T14:57:05;100698.90;;;1.16;100.00
59588;BME280;45412;54.472;18.464;2023-11-18T14:59:53;100701.08;;;1.13;100.00